Time;durP1;ratioP1;P1;durP2;ratioP2;P2;SDS_P1;SDS_P2;PMS_P1;PMS_P2;Temp;Humidity;BMP_temperature;BMP_pressure;BME280_temperature;BME280_humidity;BME280_pressure;Samples;Min_cycle;Max_cycle;Signal;HPM_P1;HPM_P2
2022/09/23 00:00:45;;;;;;;10.30;7.57;;;9.10;99.90;;;;;;4956164;28;20399;-77
2022/09/23 00:03:10;;;;;;;;;;;9.10;99.90;;;;;;4956113;28;20129;-76
2022/09/23 00:05:39;;;;;;;10.40;8.52;;;9.00;99.90;;;;;;4955638;29;20418;-78
2022/09/23 00:08:10;;;;;;;10.85;8.00;;;9.10;99.90;;;;;;4955671;28;20051;-78
2022/09/23 00:10:37;;;;;;;9.43;8.30;;;9.00;99.90;;;;;;4955602;28;20050;-78
2022/09/23 00:13:04;;;;;;;8.30;7.35;;;9.10;99.90;;;;;;4955590;28;20062;-80
2022/09/23 00:15:32;;;;;;;9.30;8.30;;;9.10;99.90;;;;;;4955488;28;20055;-79
2022/09/23 00:17:58;;;;;;;9.32;8.32;;;9.00;99.90;;;;;;4955526;28;20051;-76
2022/09/23 00:20:24;;;;;;;10.40;7.97;;;9.00;99.90;;;;;;4955577;29;20490;-76
2022/09/23 00:22:50;;;;;;;9.15;8.23;;;9.00;99.90;;;;;;4955393;28;20508;-77
2022/09/23 00:25:16;;;;;;;10.93;7.68;;;9.40;99.90;;;;;;4955471;28;20047;-77
2022/09/23 00:27:41;;;;;;;10.48;8.00;;;8.90;99.90;;;;;;4955726;29;20076;-77
2022/09/23 00:30:08;;;;;;;8.82;7.93;;;8.90;99.90;;;;;;4955497;28;20039;-78
2022/09/23 00:32:35;;;;;;;10.48;7.60;;;8.90;99.90;;;;;;4955603;28;20098;-79
2022/09/23 00:35:02;;;;;;;8.27;7.30;;;8.90;99.90;;;;;;4955635;28;20069;-76
2022/09/23 00:37:28;;;;;;;8.63;7.47;;;8.90;99.90;;;;;;4954746;29;20484;-78
2022/09/23 00:39:54;;;;;;;10.25;7.85;;;8.90;99.90;;;;;;4954974;28;20054;-79
2022/09/23 00:42:22;;;;;;;9.07;6.95;;;8.90;99.90;;;;;;4955326;29;20083;-76
2022/09/23 00:44:56;;;;;;;10.93;7.65;;;8.90;99.90;;;;;;4955867;28;20391;-79
2022/09/23 00:48:00;;;;;;;8.73;7.45;;;8.80;99.90;;;;;;4955579;28;20055;-78
2022/09/23 00:50:34;;;;;;;8.48;7.03;;;8.80;99.90;;;;;;4955214;28;20043;-78
2022/09/23 00:53:03;;;;;;;8.50;6.80;;;8.80;99.90;;;;;;4955594;28;20130;-79
2022/09/23 00:55:51;;;;;;;9.20;7.15;;;8.80;99.90;;;;;;4955043;28;20043;-80
2022/09/23 00:58:21;;;;;;;7.78;6.78;;;9.00;99.90;;;;;;4955213;28;20534;-78
2022/09/23 01:00:46;;;;;;;8.13;6.65;;;8.80;99.90;;;;;;4955141;28;20090;-79
2022/09/23 01:03:12;;;;;;;9.98;6.65;;;8.80;99.90;;;;;;4955131;28;20443;-81
2022/09/23 01:05:40;;;;;;;10.30;7.60;;;8.80;99.90;;;;;;4953938;29;20051;-79
2022/09/23 01:08:07;;;;;;;8.70;6.80;;;8.80;99.90;;;;;;4957137;28;20098;-79
2022/09/23 01:11:13;;;;;;;8.10;6.65;;;8.80;99.90;;;;;;4958908;28;20405;-79
2022/09/23 01:13:42;;;;;;;9.82;7.03;;;8.70;99.90;;;;;;4957170;29;20491;-77
2022/09/23 01:16:25;;;;;;;9.05;7.03;;;8.70;99.90;;;;;;4958520;29;20043;-78
2022/09/23 01:19:13;;;;;;;11.70;6.53;;;8.70;99.90;;;;;;4958438;29;20090;-81
2022/09/23 01:21:42;;;;;;;9.52;7.22;;;8.70;99.90;;;;;;4957811;29;20047;-79
2022/09/23 01:24:30;;;;;;;8.85;7.18;;;8.70;99.90;;;;;;4958796;29;20054;-76
2022/09/23 01:26:55;;;;;;;;;;;8.70;99.90;;;;;;4959113;29;20050;-77
2022/09/23 01:29:50;;;;;;;9.88;6.63;;;8.80;99.90;;;;;;4958377;29;20342;-78
2022/09/23 01:32:37;;;;;;;8.65;7.10;;;8.60;99.90;;;;;;4958068;28;20051;-78
2022/09/23 01:35:22;;;;;;;9.18;7.10;;;8.60;99.90;;;;;;4958328;28;20059;-76
2022/09/23 01:38:06;;;;;;;9.45;6.97;;;8.60;99.90;;;;;;4958316;28;20047;-79
2022/09/23 01:41:09;;;;;;;9.73;7.18;;;8.60;99.90;;;;;;4958087;28;20055;-80
2022/09/23 01:43:40;;;;;;;9.48;7.70;;;8.50;99.90;;;;;;4958388;28;20139;-81
2022/09/23 01:46:18;;;;;;;7.85;6.45;;;9.10;99.90;;;;;;4958000;29;20051;-81
2022/09/23 01:48:52;;;;;;;;;;;9.00;99.90;;;;;;4958531;28;20039;-78
2022/09/23 01:51:45;;;;;;;9.45;7.10;;;8.50;99.90;;;;;;4957936;28;19929;-80
2022/09/23 01:54:23;;;;;;;10.38;7.28;;;8.40;99.90;;;;;;4957301;28;20092;-77
2022/09/23 01:57:10;;;;;;;;;;;8.40;99.90;;;;;;4958309;28;20048;-79
2022/09/23 01:59:37;;;;;;;12.18;8.13;;;8.50;99.90;;;;;;4957688;28;19922;-78
2022/09/23 02:02:34;;;;;;;10.23;7.80;;;8.40;99.90;;;;;;4958116;29;20090;-79
2022/09/23 02:05:08;;;;;;;9.13;6.90;;;8.40;99.90;;;;;;4957571;29;20066;-77
2022/09/23 02:07:42;;;;;;;9.65;7.43;;;8.40;99.90;;;;;;4957773;28;20061;-78
2022/09/23 02:10:30;;;;;;;8.93;7.63;;;8.40;99.90;;;;;;4957592;29;20125;-79
2022/09/23 02:13:04;;;;;;;8.68;7.47;;;8.40;99.90;;;;;;4957864;29;20057;-78
2022/09/23 02:15:36;;;;;;;9.77;7.45;;;8.40;99.90;;;;;;4956691;28;20062;-81
2022/09/23 02:18:11;;;;;;;9.50;7.78;;;8.40;99.90;;;;;;4957494;28;20047;-76
2022/09/23 02:20:40;;;;;;;9.43;6.70;;;8.30;99.90;;;;;;4957138;29;20043;-76
2022/09/23 02:23:18;;;;;;;8.85;7.35;;;8.30;99.90;;;;;;4957417;28;20043;-78
2022/09/23 02:25:55;;;;;;;11.23;7.60;;;8.70;99.90;;;;;;4957593;28;20082;-78
2022/09/23 02:28:30;;;;;;;9.23;7.32;;;8.30;99.90;;;;;;4957396;29;20059;-80
2022/09/23 02:31:26;;;;;;;8.38;7.00;;;8.30;99.90;;;;;;4957213;28;20054;-75
2022/09/23 02:33:55;;;;;;;9.60;7.32;;;8.30;99.90;;;;;;4956135;28;20059;-78
2022/09/23 02:36:20;;;;;;;9.95;8.05;;;8.30;99.90;;;;;;4956944;29;20069;-78
2022/09/23 02:38:52;;;;;;;11.68;8.05;;;8.30;99.90;;;;;;4956943;29;20047;-77
2022/09/23 02:41:50;;;;;;;9.63;7.32;;;8.80;99.90;;;;;;4956958;28;20098;-81
2022/09/23 02:44:18;;;;;;;11.70;7.68;;;8.30;99.90;;;;;;4957041;28;20051;-78
2022/09/23 02:46:44;;;;;;;8.75;6.93;;;8.20;99.90;;;;;;4956915;28;20047;-79
2022/09/23 02:49:23;;;;;;;9.60;7.43;;;8.20;99.90;;;;;;4956992;28;20051;-78
2022/09/23 02:51:49;;;;;;;9.13;7.55;;;8.20;99.90;;;;;;4956861;28;20067;-80
2022/09/23 02:54:18;;;;;;;9.00;7.65;;;8.10;99.90;;;;;;4956548;28;20090;-76
2022/09/23 02:56:44;;;;;;;10.57;7.10;;;8.10;99.90;;;;;;4956517;28;20476;-79
2022/09/23 02:59:11;;;;;;;10.15;8.05;;;8.10;99.90;;;;;;4956569;28;20050;-77
2022/09/23 03:01:47;;;;;;;;;;;8.40;99.90;;;;;;4957015;28;20058;-78
2022/09/23 03:04:20;;;;;;;12.02;8.13;;;8.00;99.90;;;;;;4956577;29;19930;-79
2022/09/23 03:07:00;;;;;;;8.93;7.07;;;7.90;99.90;;;;;;4956928;28;20047;-79
2022/09/23 03:09:38;;;;;;;9.75;7.97;;;8.00;99.90;;;;;;4956798;28;20043;-80
2022/09/23 03:12:34;;;;;;;9.82;7.82;;;8.00;99.90;;;;;;4956479;28;20047;-77
2022/09/23 03:15:28;;;;;;;8.85;7.82;;;8.00;99.90;;;;;;4956441;28;20054;-76
2022/09/23 03:18:13;;;;;;;9.23;8.00;;;7.90;99.90;;;;;;4955504;28;20055;-79
2022/09/23 03:21:07;;;;;;;12.65;7.82;;;7.90;99.90;;;;;;4956289;28;20040;-79
2022/09/23 03:23:35;;;;;;;8.98;7.20;;;7.90;99.90;;;;;;4956198;29;20066;-77
2022/09/23 03:26:17;;;;;;;8.68;7.30;;;7.80;99.90;;;;;;4956213;28;20101;-77
2022/09/23 03:28:44;;;;;;;8.55;7.65;;;7.80;99.90;;;;;;4956510;28;20051;-79
2022/09/23 03:31:13;;;;;;;9.27;7.22;;;7.80;99.90;;;;;;4955865;28;20507;-75
2022/09/23 03:33:44;;;;;;;9.35;7.22;;;7.80;99.90;;;;;;4955805;28;20484;-75
2022/09/23 03:39:04;;;;;;;9.65;7.03;;;7.80;99.90;;;;;;4956039;28;20059;-78
2022/09/23 03:41:38;;;;;;;11.98;8.00;;;7.70;99.90;;;;;;4955997;28;20159;-79
2022/09/23 03:44:06;;;;;;;15.50;8.38;;;7.70;99.90;;;;;;4955884;28;20043;-77
2022/09/23 03:46:34;;;;;;;10.18;7.45;;;7.70;99.90;;;;;;4955919;28;20058;-76
2022/09/23 03:49:13;;;;;;;9.75;7.82;;;7.60;99.90;;;;;;4955901;28;20051;-77
2022/09/23 03:51:39;;;;;;;8.07;7.10;;;7.60;99.90;;;;;;4955908;28;20129;-77
2022/09/23 03:54:05;;;;;;;11.07;7.82;;;8.30;99.90;;;;;;4955831;29;20075;-76
2022/09/23 03:56:30;;;;;;;8.15;7.22;;;7.60;99.90;;;;;;4955712;29;20205;-76
2022/09/23 03:58:56;;;;;;;11.13;8.55;;;7.60;99.90;;;;;;4955712;28;20039;-80
2022/09/23 04:01:22;;;;;;;10.05;8.43;;;7.60;99.90;;;;;;4956061;28;20047;-79
2022/09/23 04:03:47;;;;;;;9.57;7.47;;;7.60;99.90;;;;;;4955812;28;20484;-77
2022/09/23 04:06:13;;;;;;;9.40;8.25;;;7.60;99.90;;;;;;4955673;28;20142;-75
2022/09/23 04:08:39;;;;;;;11.18;8.77;;;7.60;99.90;;;;;;4955806;28;20058;-76
2022/09/23 04:11:05;;;;;;;12.50;8.13;;;7.50;99.90;;;;;;4955562;28;20435;-80
2022/09/23 04:13:31;;;;;;;10.57;7.75;;;7.60;99.90;;;;;;4955599;28;20399;-76
2022/09/23 04:15:57;;;;;;;9.20;7.60;;;7.60;99.90;;;;;;4955901;28;20047;-77
2022/09/23 04:18:23;;;;;;;10.07;7.82;;;8.10;99.90;;;;;;4955631;28;20043;-78
2022/09/23 04:20:49;;;;;;;10.57;9.47;;;7.50;99.90;;;;;;4955531;29;20043;-78
2022/09/23 04:23:14;;;;;;;10.43;9.18;;;7.50;99.90;;;;;;4955477;29;20055;-79
2022/09/23 04:25:45;;;;;;;13.23;7.93;;;7.50;99.90;;;;;;4955426;28;20083;-75
2022/09/23 04:28:10;;;;;;;9.52;7.65;;;7.50;99.90;;;;;;4955410;28;20061;-76
2022/09/23 04:30:42;;;;;;;10.93;8.07;;;8.00;99.90;;;;;;4955788;29;20035;-80
2022/09/23 04:33:09;;;;;;;10.27;7.85;;;7.50;99.90;;;;;;4955471;28;20055;-79
2022/09/23 04:35:37;;;;;;;10.98;8.73;;;7.50;99.90;;;;;;4955353;28;20131;-77
2022/09/23 04:38:07;;;;;;;9.98;8.48;;;7.50;99.90;;;;;;4955210;28;20059;-81
2022/09/23 04:40:34;;;;;;;11.32;9.30;;;7.50;99.90;;;;;;4955158;28;20048;-77
2022/09/23 04:43:00;;;;;;;11.32;8.70;;;7.50;99.90;;;;;;4957349;28;20105;-79
2022/09/23 04:45:26;;;;;;;9.60;8.02;;;7.40;99.90;;;;;;4959154;28;20044;-79
2022/09/23 04:47:51;;;;;;;10.80;8.57;;;7.40;99.90;;;;;;4959328;29;20372;-77
2022/09/23 04:50:17;;;;;;;11.50;8.65;;;7.40;99.90;;;;;;4959216;29;20148;-77
2022/09/23 04:52:42;;;;;;;9.68;7.47;;;7.40;99.90;;;;;;4958916;29;20101;-79
2022/09/23 04:55:08;;;;;;;11.60;8.43;;;7.40;99.90;;;;;;4958826;28;20043;-78
2022/09/23 04:57:34;;;;;;;12.82;9.65;;;7.40;99.90;;;;;;4958973;28;20133;-77
2022/09/23 05:00:00;;;;;;;8.82;7.78;;;7.40;99.90;;;;;;4959044;28;20091;-75
2022/09/23 05:02:27;;;;;;;10.70;8.52;;;7.40;99.90;;;;;;4958995;28;20047;-79
2022/09/23 05:04:53;;;;;;;12.70;9.27;;;7.40;99.90;;;;;;4958532;28;20519;-80
2022/09/23 05:07:18;;;;;;;10.65;8.50;;;7.40;99.90;;;;;;4958734;28;20411;-78
2022/09/23 05:09:44;;;;;;;9.40;8.43;;;8.30;99.90;;;;;;4958636;29;20047;-78
2022/09/23 05:12:10;;;;;;;13.75;9.35;;;7.40;99.90;;;;;;4959105;28;20054;-82
2022/09/23 05:14:37;;;;;;;10.52;8.07;;;7.50;99.90;;;;;;4958595;28;20394;-77
2022/09/23 05:17:04;;;;;;;11.40;8.07;;;7.40;99.90;;;;;;4958645;28;20485;-79
2022/09/23 05:19:30;;;;;;;10.77;7.45;;;7.40;99.90;;;;;;4958539;28;20129;-79
2022/09/23 05:21:55;;;;;;;10.05;8.88;;;7.50;99.90;;;;;;4958597;28;20082;-80
2022/09/23 05:24:23;;;;;;;11.40;7.95;;;7.40;99.90;;;;;;4958417;28;20043;-77
2022/09/23 05:26:48;;;;;;;11.32;8.50;;;7.40;99.90;;;;;;4958381;28;20039;-79
2022/09/23 05:29:14;;;;;;;10.52;8.52;;;7.40;99.90;;;;;;4958602;29;20510;-80
2022/09/23 05:31:40;;;;;;;10.95;8.52;;;7.40;99.90;;;;;;4958581;28;20094;-76
2022/09/23 05:34:05;;;;;;;11.73;8.63;;;7.40;99.90;;;;;;4958262;28;20125;-79
2022/09/23 05:36:33;;;;;;;10.45;8.68;;;7.40;99.90;;;;;;4958211;28;20047;-81
2022/09/23 05:38:59;;;;;;;11.65;8.25;;;7.40;99.90;;;;;;4957892;28;20055;-75
2022/09/23 05:41:25;;;;;;;11.43;8.38;;;7.40;99.90;;;;;;4957400;28;20435;-79
2022/09/23 05:43:52;;;;;;;10.60;9.15;;;7.40;99.90;;;;;;4958005;28;20083;-76
2022/09/23 05:46:22;;;;;;;10.38;7.97;;;8.00;99.90;;;;;;4958550;28;20106;-78
2022/09/23 05:48:48;;;;;;;13.32;8.77;;;7.40;99.90;;;;;;4957955;28;20126;-78
2022/09/23 05:51:19;;;;;;;10.90;9.13;;;7.40;99.90;;;;;;4957994;28;20090;-79
2022/09/23 05:53:45;;;;;;;9.63;8.50;;;7.40;99.90;;;;;;4956733;28;20043;-80
2022/09/23 05:56:16;;;;;;;12.40;8.63;;;7.40;99.90;;;;;;4957924;28;20082;-80
2022/09/23 05:58:43;;;;;;;11.10;9.43;;;7.40;99.90;;;;;;4957556;28;20047;-78
2022/09/23 06:01:25;;;;;;;10.57;8.38;;;7.50;99.90;;;;;;4958032;28;20090;-79
2022/09/23 06:03:51;;;;;;;10.75;9.02;;;7.50;99.90;;;;;;4957715;28;20047;-77
2022/09/23 06:06:24;;;;;;;10.93;9.10;;;7.50;99.90;;;;;;4957695;28;20054;-77
2022/09/23 06:08:50;;;;;;;12.57;9.23;;;7.50;99.90;;;;;;4957669;28;20047;-80
2022/09/23 06:11:16;;;;;;;14.00;8.93;;;7.60;99.90;;;;;;4957561;28;20043;-76
2022/09/23 06:13:42;;;;;;;14.35;9.50;;;8.00;99.90;;;;;;4957620;28;20058;-76
2022/09/23 06:16:10;;;;;;;13.20;9.18;;;7.60;99.90;;;;;;4957696;28;20042;-78
2022/09/23 06:18:44;;;;;;;12.75;9.00;;;7.70;99.90;;;;;;4956307;28;20098;-77
2022/09/23 06:21:15;;;;;;;12.00;9.32;;;7.70;99.90;;;;;;4957446;28;20044;-80
2022/09/23 06:23:42;;;;;;;10.88;8.65;;;7.70;99.90;;;;;;4957638;28;20050;-79
2022/09/23 06:26:09;;;;;;;11.38;8.80;;;8.20;99.90;;;;;;4957348;28;20051;-77
2022/09/23 06:28:37;;;;;;;12.40;9.80;;;7.80;99.90;;;;;;4957270;28;20503;-77
2022/09/23 06:31:14;;;;;;;10.95;8.77;;;7.90;99.90;;;;;;4957198;28;20109;-79
2022/09/23 06:33:44;;;;;;;16.88;8.93;;;8.00;99.90;;;;;;4957300;28;20044;-77
2022/09/23 06:36:11;;;;;;;13.27;8.70;;;8.10;99.90;;;;;;4957166;28;20475;-75
2022/09/23 06:38:43;;;;;;;11.75;8.65;;;8.20;99.90;;;;;;4957135;28;20063;-76
2022/09/23 06:41:10;;;;;;;10.93;8.85;;;8.30;99.90;;;;;;4957025;28;20053;-80
2022/09/23 06:43:36;;;;;;;11.10;7.85;;;8.60;99.90;;;;;;4956775;29;20471;-77
2022/09/23 06:46:03;;;;;;;10.13;8.70;;;8.70;99.90;;;;;;4956885;29;20046;-79
2022/09/23 06:48:30;;;;;;;10.77;7.90;;;8.70;99.90;;;;;;4956922;28;20043;-77
2022/09/23 06:51:03;;;;;;;10.23;8.25;;;8.80;99.90;;;;;;4956903;28;20082;-80
2022/09/23 06:53:33;;;;;;;10.15;7.78;;;8.90;99.90;;;;;;4956834;28;20058;-77
2022/09/23 06:56:07;;;;;;;13.00;7.28;;;9.10;99.90;;;;;;4956723;28;20097;-76
2022/09/23 06:58:34;;;;;;;11.82;7.90;;;9.20;99.90;;;;;;4956297;28;20047;-79
2022/09/23 07:01:01;;;;;;;9.13;7.25;;;9.40;99.90;;;;;;4957214;28;20047;-78
2022/09/23 07:03:28;;;;;;;13.13;8.10;;;9.40;99.90;;;;;;4956959;28;20043;-77
2022/09/23 07:05:55;;;;;;;9.93;7.50;;;9.80;99.90;;;;;;4956116;28;20050;-76
2022/09/23 07:08:21;;;;;;;10.50;8.13;;;9.70;99.90;;;;;;4956626;28;20278;-80
2022/09/23 07:10:52;;;;;;;10.32;7.43;;;9.70;99.90;;;;;;4956542;28;20055;-78
2022/09/23 07:13:17;;;;;;;13.15;7.70;;;9.80;99.90;;;;;;4956450;28;20098;-78
2022/09/23 07:15:49;;;;;;;9.65;7.72;;;9.90;99.90;;;;;;4956484;28;20047;-76
2022/09/23 07:18:15;;;;;;;11.95;6.82;;;9.90;99.90;;;;;;4956406;28;20047;-79
2022/09/23 07:20:40;;;;;;;9.70;7.57;;;9.90;99.90;;;;;;4955140;29;20396;-77
2022/09/23 07:23:06;;;;;;;10.88;7.72;;;10.00;99.90;;;;;;4956394;28;20047;-79
2022/09/23 07:25:33;;;;;;;10.32;8.13;;;10.00;99.90;;;;;;4956210;29;20045;-77
2022/09/23 07:27:59;;;;;;;11.75;7.00;;;10.10;99.90;;;;;;4955910;28;20492;-76
2022/09/23 07:30:25;;;;;;;10.75;7.10;;;10.20;99.90;;;;;;4956252;28;20047;-75
2022/09/23 07:32:51;;;;;;;10.00;7.75;;;10.20;99.90;;;;;;4956422;28;20039;-76
2022/09/23 07:35:17;;;;;;;11.43;7.47;;;10.30;99.90;;;;;;4956149;28;20046;-78
2022/09/23 07:37:43;;;;;;;8.10;7.07;;;10.30;99.90;;;;;;4956060;29;20043;-79
2022/09/23 07:40:09;;;;;;;9.77;7.45;;;10.80;99.90;;;;;;4938399;29;20055;-77
2022/09/23 07:42:35;;;;;;;9.73;6.65;;;10.50;99.90;;;;;;4956078;28;20080;-80
2022/09/23 07:45:01;;;;;;;9.73;8.68;;;10.60;99.90;;;;;;4955913;28;20050;-80
2022/09/23 07:47:27;;;;;;;11.15;7.10;;;10.70;99.90;;;;;;4955959;28;20082;-76
2022/09/23 07:49:53;;;;;;;11.75;7.22;;;10.80;99.90;;;;;;4956239;28;20051;-79
2022/09/23 07:52:19;;;;;;;10.90;7.25;;;10.90;99.90;;;;;;4956078;28;20477;-78
2022/09/23 07:54:46;;;;;;;7.87;6.63;;;11.00;99.90;;;;;;4955478;28;20541;-78
2022/09/23 07:57:12;;;;;;;9.05;6.65;;;11.10;99.90;;;;;;4956169;28;20178;-79
2022/09/23 07:59:39;;;;;;;11.98;6.38;;;11.20;99.90;;;;;;4955877;28;20481;-78
2022/09/23 08:02:05;;;;;;;;;;;11.30;99.90;;;;;;4956216;28;20059;-78
2022/09/23 08:04:33;;;;;;;8.23;6.50;;;11.40;99.90;;;;;;4955700;28;19923;-79
2022/09/23 08:07:01;;;;;;;8.57;6.45;;;11.50;99.90;;;;;;4955866;28;20058;-76
2022/09/23 08:09:31;;;;;;;7.85;5.97;;;11.60;99.90;;;;;;4955625;28;20039;-78
2022/09/23 08:11:57;;;;;;;9.25;7.10;;;11.70;99.90;;;;;;4955627;28;20044;-78
2022/09/23 08:14:23;;;;;;;9.63;6.78;;;11.80;99.90;;;;;;4955967;28;20087;-79
2022/09/23 08:16:49;;;;;;;8.70;6.45;;;12.10;99.90;;;;;;4955078;28;20506;-79
2022/09/23 08:19:15;;;;;;;11.25;7.32;;;11.90;99.90;;;;;;4955494;28;20188;-81
2022/09/23 08:21:45;;;;;;;8.82;6.88;;;12.00;99.90;;;;;;4955530;28;20039;-78
2022/09/23 08:24:14;;;;;;;10.20;7.00;;;12.10;99.90;;;;;;4955419;28;20043;-77
2022/09/23 08:26:41;;;;;;;9.10;6.85;;;12.40;99.90;;;;;;4955484;28;20055;-80
2022/09/23 08:29:10;;;;;;;8.23;6.93;;;12.40;99.90;;;;;;4955452;29;20043;-80
2022/09/23 08:31:35;;;;;;;12.23;7.38;;;12.40;99.90;;;;;;4955406;28;20047;-78
2022/09/23 08:34:01;;;;;;;11.77;7.95;;;12.60;99.90;;;;;;4955668;29;20048;-79
2022/09/23 08:36:26;;;;;;;10.40;7.40;;;12.40;99.90;;;;;;4955417;28;20142;-80
2022/09/23 08:38:53;;;;;;;7.50;6.30;;;12.50;99.90;;;;;;4955199;28;20117;-80
2022/09/23 08:41:31;;;;;;;8.13;6.75;;;12.50;99.90;;;;;;4955297;28;20407;-79
2022/09/23 08:44:28;;;;;;;11.20;6.70;;;12.60;99.90;;;;;;4955097;28;20475;-75
2022/09/23 08:47:14;;;;;;;9.30;6.35;;;12.70;99.90;;;;;;4954396;28;20095;-80
2022/09/23 08:49:55;;;;;;;7.40;6.47;;;12.80;99.90;;;;;;4955701;28;20047;-77
2022/09/23 08:52:33;;;;;;;8.68;5.93;;;12.80;99.90;;;;;;4955333;28;20062;-80
2022/09/23 08:55:01;;;;;;;8.85;6.47;;;13.20;99.90;;;;;;4955274;28;20126;-78
2022/09/23 08:57:57;;;;;;;10.52;6.88;;;13.00;99.90;;;;;;4955207;28;20102;-76
2022/09/23 09:00:33;;;;;;;9.65;6.28;;;13.10;99.90;;;;;;4955089;29;20089;-77
2022/09/23 09:03:00;;;;;;;10.07;6.72;;;13.20;99.90;;;;;;4955202;28;20074;-78
2022/09/23 09:05:27;;;;;;;7.80;6.95;;;13.30;99.90;;;;;;4954073;29;20071;-79
2022/09/23 09:07:57;;;;;;;10.00;7.15;;;13.30;99.90;;;;;;4954837;28;20051;-79
2022/09/23 09:10:34;;;;;;;8.18;7.05;;;13.40;99.90;;;;;;4955601;28;20084;-77
2022/09/23 09:13:06;;;;;;;10.00;7.85;;;13.60;99.90;;;;;;4955153;28;20161;-81
2022/09/23 09:15:50;;;;;;;14.38;6.70;;;13.80;99.90;;;;;;4955146;28;20131;-78
2022/09/23 09:18:19;;;;;;;12.10;6.38;;;13.60;99.90;;;;;;4955042;28;20499;-78
2022/09/23 09:21:04;;;;;;;11.07;7.25;;;13.60;99.90;;;;;;4954945;28;20039;-80
2022/09/23 09:23:53;;;;;;;8.25;7.07;;;13.60;99.90;;;;;;4955603;28;20121;-80
2022/09/23 09:26:33;;;;;;;7.95;6.90;;;13.80;99.90;;;;;;4954979;28;20051;-79
2022/09/23 09:29:14;;;;;;;8.00;5.88;;;13.90;99.90;;;;;;4956695;28;20051;-81
2022/09/23 09:31:44;;;;;;;7.80;6.70;;;14.00;99.90;;;;;;4958637;28;20134;-77
2022/09/23 09:34:36;;;;;;;8.63;6.50;;;14.10;99.90;;;;;;4958500;28;20058;-76
2022/09/23 09:37:45;;;;;;;12.18;7.28;;;14.20;99.90;;;;;;4958340;28;20043;-78
2022/09/23 09:40:12;;;;;;;7.38;6.68;;;14.30;99.90;;;;;;4958915;28;20055;-77
2022/09/23 09:42:40;;;;;;;9.85;6.80;;;14.30;99.90;;;;;;4957857;28;20448;-78
2022/09/23 09:45:20;;;;;;;8.88;6.57;;;14.40;99.90;;;;;;4958234;28;20050;-77
2022/09/23 09:48:02;;;;;;;9.68;6.38;;;14.50;99.90;;;;;;4957077;29;20039;-79
2022/09/23 09:50:50;;;;;;;9.27;6.88;;;14.50;99.90;;;;;;4958004;28;20054;-78
2022/09/23 09:53:21;;;;;;;10.35;7.00;;;14.50;99.90;;;;;;4958182;28;20083;-78
2022/09/23 09:55:57;;;;;;;8.82;6.57;;;14.60;99.90;;;;;;4957883;28;20057;-79
2022/09/23 09:58:26;;;;;;;8.10;6.72;;;14.60;99.90;;;;;;4957906;28;20047;-77
2022/09/23 10:00:52;;;;;;;7.65;6.80;;;14.70;99.90;;;;;;4957555;28;20039;-80
2022/09/23 10:03:44;;;;;;;9.30;6.77;;;14.80;99.90;;;;;;4958053;28;20062;-77
2022/09/23 10:06:19;;;;;;;8.00;6.95;;;14.80;99.90;;;;;;4955434;29;20586;-77
2022/09/23 10:09:07;;;;;;;8.95;6.15;;;14.90;99.90;;;;;;4957409;28;20498;-78
2022/09/23 10:11:33;;;;;;;9.77;6.25;;;14.90;99.90;;;;;;4957877;28;20050;-81
2022/09/23 10:14:01;;;;;;;8.60;6.55;;;15.00;99.90;;;;;;4957695;28;20047;-79
2022/09/23 10:16:30;;;;;;;8.88;7.22;;;15.20;99.90;;;;;;4957548;28;20506;-79
2022/09/23 10:18:58;;;;;;;8.20;6.22;;;15.30;99.90;;;;;;4957304;28;20451;-78
2022/09/23 10:21:32;;;;;;;10.38;6.40;;;15.40;99.90;;;;;;4957439;28;20391;-77
2022/09/23 10:23:59;;;;;;;13.27;6.30;;;15.50;99.90;;;;;;4957807;28;20051;-77
2022/09/23 10:27:06;;;;;;;8.27;5.93;;;15.60;99.90;;;;;;4957700;28;20047;-76
2022/09/23 10:29:49;;;;;;;8.73;6.70;;;15.60;99.90;;;;;;4957124;29;20051;-79
2022/09/23 10:32:21;;;;;;;7.22;5.93;;;15.70;99.90;;;;;;4957045;28;20487;-81
2022/09/23 10:35:14;;;;;;;10.27;6.45;;;15.70;99.90;;;;;;4957181;29;20142;-75
2022/09/23 10:37:48;;;;;;;9.18;5.97;;;15.60;99.90;;;;;;4957237;28;20051;-80
2022/09/23 10:47:09;;;;;;;8.60;6.07;;;15.50;99.90;;;;;;4957017;28;20471;-78
2022/09/23 10:49:51;;;;;;;10.75;6.35;;;15.40;99.90;;;;;;4955025;28;20052;-78
2022/09/23 10:52:21;;;;;;;9.02;6.30;;;15.40;99.90;;;;;;4957122;28;20051;-77
2022/09/23 10:55:30;;;;;;;8.27;6.55;;;15.30;99.90;;;;;;4956773;28;20057;-81
2022/09/23 10:58:06;;;;;;;;;;;15.40;99.90;;;;;;4957142;28;20047;-78
2022/09/23 11:01:12;;;;;;;9.75;6.00;;;15.40;99.90;;;;;;4956815;28;19922;-80
2022/09/23 11:04:01;;;;;;;7.57;6.25;;;15.40;99.90;;;;;;4957074;28;20130;-80
2022/09/23 11:06:40;;;;;;;6.93;5.75;;;15.40;99.90;;;;;;4956833;29;20086;-77
2022/09/23 11:09:41;;;;;;;7.80;6.20;;;15.50;99.90;;;;;;4956510;28;20051;-80
2022/09/23 11:12:35;;;;;;;6.97;6.28;;;15.60;99.90;;;;;;4956569;28;20505;-78
2022/09/23 11:15:31;;;;;;;8.77;6.15;;;15.60;99.90;;;;;;4956447;28;20130;-77
2022/09/23 11:18:18;;;;;;;7.47;6.13;;;15.70;99.90;;;;;;4955848;29;20086;-78
2022/09/23 11:20:53;;;;;;;8.98;6.15;;;15.70;99.90;;;;;;4956430;28;20134;-76
2022/09/23 11:23:53;;;;;;;9.52;6.65;;;15.70;99.90;;;;;;4956433;28;20047;-75
2022/09/23 11:26:41;;;;;;;8.15;6.07;;;15.90;99.90;;;;;;4956697;29;20051;-80
2022/09/23 11:29:30;;;;;;;8.00;5.97;;;15.90;99.90;;;;;;4956223;29;20039;-79
2022/09/23 11:32:18;;;;;;;8.13;6.35;;;15.90;99.90;;;;;;4956298;28;20050;-78
2022/09/23 11:35:21;;;;;;;8.43;5.93;;;15.90;99.90;;;;;;4955866;28;20521;-79
2022/09/23 11:38:00;;;;;;;7.53;6.13;;;16.00;99.90;;;;;;4955444;28;20062;-76
2022/09/23 11:40:41;;;;;;;9.40;6.20;;;16.00;99.90;;;;;;4954816;28;20608;-76
2022/09/23 11:43:13;;;;;;;8.93;5.95;;;16.10;99.90;;;;;;4956031;28;20051;-78
2022/09/23 11:46:06;;;;;;;7.80;6.25;;;16.10;99.90;;;;;;4955959;28;20507;-78
2022/09/23 11:48:50;;;;;;;9.05;5.90;;;16.20;99.90;;;;;;4956032;28;20050;-77
2022/09/23 11:51:59;;;;;;;10.15;6.63;;;16.20;99.90;;;;;;4955834;28;20093;-77
2022/09/23 11:54:38;;;;;;;17.57;6.67;;;16.30;99.90;;;;;;4954977;28;20145;-81
2022/09/23 11:57:10;;;;;;;11.18;6.47;;;16.30;99.90;;;;;;4955984;28;20086;-79
2022/09/23 11:59:50;;;;;;;8.10;5.88;;;16.30;99.90;;;;;;4955678;28;20138;-80
2022/09/23 12:02:23;;;;;;;9.70;7.82;;;16.30;99.90;;;;;;4955828;28;20058;-79
2022/09/23 12:05:18;;;;;;;7.55;6.28;;;16.40;99.90;;;;;;4955957;28;20483;-78
2022/09/23 12:07:58;;;;;;;8.70;5.85;;;16.40;99.90;;;;;;4955347;29;20086;-76
2022/09/23 12:10:47;;;;;;;8.15;6.20;;;16.40;99.90;;;;;;4956065;29;20040;-78
2022/09/23 12:13:37;;;;;;;8.30;5.68;;;16.40;99.90;;;;;;4955624;28;20050;-76
2022/09/23 12:16:47;;;;;;;6.97;5.90;;;16.40;99.90;;;;;;4955262;28;20513;-77
2022/09/23 12:19:29;;;;;;;8.05;6.30;;;16.40;99.90;;;;;;4954975;28;20106;-77
2022/09/23 12:22:17;;;;;;;9.45;6.28;;;16.40;99.90;;;;;;4954578;29;20055;-80
2022/09/23 12:25:04;;;;;;;13.27;8.18;;;16.50;99.90;;;;;;4955965;29;20051;-78
2022/09/23 12:27:43;;;;;;;7.97;6.27;;;16.50;99.90;;;;;;4955872;29;20423;-79
2022/09/23 12:30:26;;;;;;;7.85;6.57;;;16.60;99.90;;;;;;4955652;28;20122;-76
2022/09/23 12:33:05;;;;;;;12.07;7.85;;;16.60;99.90;;;;;;4955500;28;20047;-77
2022/09/23 12:35:44;;;;;;;8.07;5.85;;;16.70;99.90;;;;;;4955780;28;20464;-78
2022/09/23 12:38:21;;;;;;;9.88;8.13;;;16.80;99.90;;;;;;4955258;28;20069;-80
2022/09/23 12:40:48;;;;;;;7.68;5.75;;;16.70;99.90;;;;;;4955382;29;20053;-76
2022/09/23 12:43:30;;;;;;;9.23;5.68;;;16.70;99.90;;;;;;4955393;28;20086;-80
2022/09/23 12:46:23;;;;;;;7.00;5.32;;;16.70;99.90;;;;;;4955400;28;20051;-79
2022/09/23 12:48:56;;;;;;;7.60;5.68;;;16.70;99.90;;;;;;4955397;28;20043;-78
2022/09/23 12:51:22;;;;;;;9.02;5.38;;;16.70;99.90;;;;;;4955385;28;20047;-81
2022/09/23 12:53:53;;;;;;;8.40;5.63;;;16.70;99.90;;;;;;4955222;28;20051;-79
2022/09/23 12:56:46;;;;;;;7.15;5.63;;;16.70;99.90;;;;;;4955221;28;20058;-81
2022/09/23 12:59:53;;;;;;;8.88;5.88;;;16.70;99.90;;;;;;4954607;28;20054;-79
2022/09/23 13:08:46;;;;;;;8.40;5.70;;;16.70;99.90;;;;;;4958745;28;20051;-79
2022/09/23 13:11:32;;;;;;;8.85;5.88;;;16.70;99.90;;;;;;4958732;28;20135;-79
2022/09/23 13:14:03;;;;;;;8.80;5.70;;;16.70;99.90;;;;;;4958631;28;20062;-79
2022/09/23 13:16:42;;;;;;;7.82;5.75;;;16.80;99.90;;;;;;4958650;28;20138;-79
2022/09/23 13:19:28;;;;;;;7.28;5.55;;;16.80;99.90;;;;;;4958367;28;20506;-79
2022/09/23 13:21:58;;;;;;;8.75;5.90;;;16.70;99.90;;;;;;4957213;28;20106;-75
2022/09/23 13:24:32;;;;;;;7.32;5.28;;;16.80;99.90;;;;;;4958439;29;20138;-80
2022/09/23 13:26:59;;;;;;;9.63;5.68;;;16.80;99.90;;;;;;4958636;28;20047;-80
2022/09/23 13:29:47;;;;;;;10.70;5.60;;;16.90;99.90;;;;;;4958328;28;20071;-80
2022/09/23 13:32:18;;;;;;;8.32;6.00;;;16.90;99.90;;;;;;4957585;29;20388;-80
2022/09/23 13:34:54;;;;;;;13.73;6.97;;;16.90;99.90;;;;;;4958680;28;20054;-77
2022/09/23 13:37:23;;;;;;;8.05;6.28;;;16.90;99.90;;;;;;4958340;28;20055;-76
2022/09/23 13:39:49;;;;;;;11.07;6.32;;;16.90;99.90;;;;;;4958519;28;20048;-78
2022/09/23 13:42:29;;;;;;;7.40;5.77;;;16.90;99.90;;;;;;4958180;29;20369;-77